createdAt,value
2023-05-20T00:00:04.750Z,76.96
2023-05-20T00:01:04.771Z,76.96
2023-05-20T00:02:04.712Z,77.17
2023-05-20T00:03:04.844Z,77.98
2023-05-20T00:04:04.858Z,77.47
2023-05-20T00:05:04.736Z,77.78
2023-05-20T00:06:04.691Z,77.26
2023-05-20T00:07:04.681Z,76.28
2023-05-20T00:08:04.663Z,77.17
2023-05-20T00:09:04.698Z,76.96
2023-05-20T00:10:04.648Z,77.17
2023-05-20T00:11:04.647Z,77.20
2023-05-20T00:12:04.678Z,77.47
2023-05-20T00:13:04.606Z,77.61
2023-05-20T00:14:04.589Z,77.30
2023-05-20T00:15:04.574Z,77.57
2023-05-20T00:16:04.587Z,77.61
2023-05-20T00:17:04.641Z,77.51
2023-05-20T00:18:04.667Z,77.40
2023-05-20T00:19:04.598Z,78.02
2023-05-20T00:20:04.544Z,77.81
2023-05-20T00:21:04.515Z,77.51
2023-05-20T00:22:04.515Z,77.10
2023-05-20T00:23:04.552Z,77.20
2023-05-20T00:24:04.515Z,77.40
2023-05-20T00:25:04.466Z,78.02
2023-05-20T00:26:04.499Z,78.02
2023-05-20T00:27:04.451Z,77.71
2023-05-20T00:28:04.495Z,77.40
2023-05-20T00:29:04.535Z,77.51
2023-05-20T00:30:04.415Z,78.53
2023-05-20T00:31:04.408Z,78.42
2023-05-20T00:32:04.444Z,78.63
2023-05-20T00:33:04.485Z,78.46
2023-05-20T00:34:04.391Z,79.75
2023-05-20T00:35:04.445Z,79.07
2023-05-20T00:36:04.368Z,78.56
2023-05-20T00:37:04.358Z,77.91
2023-05-20T00:38:04.338Z,78.16
2023-05-20T00:39:04.328Z,78.22
2023-05-20T00:40:04.327Z,78.22
2023-05-20T00:41:04.355Z,78.63
2023-05-20T00:42:04.283Z,78.87
2023-05-20T00:43:04.278Z,79.24
2023-05-20T00:44:04.261Z,78.46
2023-05-20T00:45:04.258Z,78.87
2023-05-20T00:46:04.322Z,77.75
2023-05-20T00:47:04.300Z,78.05
2023-05-20T00:48:04.352Z,79.79
2023-05-20T00:49:04.227Z,79.27
2023-05-20T00:50:04.209Z,78.87
2023-05-20T00:51:04.202Z,79.07
2023-05-20T00:52:04.228Z,79.27
2023-05-20T00:53:04.212Z,79.68
2023-05-20T00:54:04.165Z,79.27
2023-05-20T00:55:04.142Z,78.87
2023-05-20T00:56:04.162Z,78.46
2023-05-20T00:57:04.142Z,78.77
2023-05-20T00:58:04.175Z,78.46
2023-05-20T00:59:04.178Z,78.56
2023-05-20T01:00:04.131Z,78.66
2023-05-20T01:01:04.097Z,79.48
2023-05-20T01:02:04.110Z,78.56
2023-05-20T01:03:04.185Z,78.05
2023-05-20T01:04:04.057Z,78.77
2023-05-20T01:05:04.046Z,79.27
2023-05-20T01:06:04.045Z,78.97
2023-05-20T01:07:04.033Z,79.58
2023-05-20T01:08:04.004Z,79.07
2023-05-20T01:09:04.005Z,78.60
2023-05-20T01:10:03.996Z,78.56
2023-05-20T01:11:03.969Z,79.07
2023-05-20T01:12:03.981Z,79.48
2023-05-20T01:13:03.943Z,79.58
2023-05-20T01:14:03.934Z,79.38
2023-05-20T01:15:03.969Z,79.27
2023-05-20T01:16:03.979Z,79.07
2023-05-20T01:17:03.894Z,79.52
2023-05-20T01:18:03.915Z,79.52
2023-05-20T01:19:03.920Z,79.99
2023-05-20T01:20:03.868Z,79.72
2023-05-20T01:21:03.874Z,79.79
2023-05-20T01:22:03.851Z,79.58
2023-05-20T01:23:03.871Z,80.23
2023-05-20T01:24:03.831Z,79.41
2023-05-20T01:25:03.810Z,80.02
2023-05-20T01:26:03.831Z,80.23
2023-05-20T01:27:03.817Z,79.93
2023-05-20T01:28:03.782Z,79.93
2023-05-20T01:29:03.860Z,80.43
2023-05-20T01:30:03.777Z,79.82
2023-05-20T01:31:03.790Z,80.74
2023-05-20T01:32:03.731Z,79.93
2023-05-20T01:33:03.774Z,80.54
2023-05-20T01:34:03.758Z,80.47
2023-05-20T01:35:03.704Z,80.27
2023-05-20T01:36:03.691Z,80.57
2023-05-20T01:37:03.825Z,80.94
2023-05-20T01:38:03.679Z,81.04
2023-05-20T01:39:03.796Z,80.68
2023-05-20T01:40:03.709Z,80.68
2023-05-20T01:41:03.638Z,81.18
2023-05-20T01:42:03.638Z,80.27
2023-05-20T01:43:03.691Z,80.98
2023-05-20T01:44:03.632Z,80.88
2023-05-20T01:45:03.599Z,81.18
2023-05-20T01:46:03.707Z,81.29
2023-05-20T01:47:03.627Z,81.29
2023-05-20T01:48:03.624Z,81.39
2023-05-20T01:49:03.569Z,81.29
2023-05-20T01:50:03.539Z,81.90
2023-05-20T01:51:03.550Z,82.31
2023-05-20T01:52:03.624Z,81.59
2023-05-20T01:53:03.511Z,81.49
2023-05-20T01:54:03.497Z,81.49
2023-05-20T01:55:03.501Z,81.84
2023-05-20T01:56:03.495Z,81.84
2023-05-20T01:57:03.466Z,82.24
2023-05-20T01:58:03.535Z,81.53
2023-05-20T01:59:03.456Z,81.23
2023-05-20T02:00:03.454Z,81.73
2023-05-20T02:01:03.481Z,81.73
2023-05-20T02:02:03.448Z,81.63
2023-05-20T02:03:03.425Z,81.84
2023-05-20T02:04:03.463Z,81.84
2023-05-20T02:05:03.381Z,81.94
2023-05-20T02:06:03.412Z,82.14
2023-05-20T02:07:03.377Z,82.35
2023-05-20T02:08:03.340Z,82.35
2023-05-20T02:09:03.345Z,82.18
2023-05-20T02:10:03.438Z,81.98
2023-05-20T02:11:03.363Z,81.98
2023-05-20T02:12:03.302Z,82.08
2023-05-20T02:13:03.298Z,81.98
2023-05-20T02:14:03.283Z,82.59
2023-05-20T02:15:03.287Z,82.39
2023-05-20T02:16:03.444Z,82.18
2023-05-20T02:17:03.253Z,82.32
2023-05-20T02:18:03.308Z,82.49
2023-05-20T02:19:03.372Z,82.28
2023-05-20T02:20:03.220Z,82.63
2023-05-20T02:21:03.219Z,83.04
2023-05-20T02:22:03.257Z,82.59
2023-05-20T02:23:03.206Z,82.83
2023-05-20T02:24:03.181Z,82.63
2023-05-20T02:25:03.199Z,82.79
2023-05-20T02:26:03.202Z,83.20
2023-05-20T02:27:03.165Z,83.10
2023-05-20T02:28:03.157Z,83.24
2023-05-20T02:29:03.143Z,83.04
2023-05-20T02:30:03.124Z,83.44
2023-05-20T02:31:03.118Z,83.34
2023-05-20T02:32:03.110Z,84.16
2023-05-20T02:33:03.149Z,84.00
2023-05-20T02:34:03.101Z,83.75
2023-05-20T02:35:03.066Z,83.44
2023-05-20T02:36:03.061Z,83.59
2023-05-20T02:37:03.060Z,83.44
2023-05-20T02:38:03.039Z,83.65
2023-05-20T02:39:03.030Z,83.18
2023-05-20T02:40:03.017Z,83.89
2023-05-20T02:41:02.994Z,83.69
2023-05-20T02:42:03.011Z,83.48
2023-05-20T02:43:02.987Z,83.89
2023-05-20T02:44:02.984Z,83.79
2023-05-20T02:45:03.018Z,84.20
2023-05-20T02:46:03.000Z,84.30
2023-05-20T02:47:02.941Z,83.79
2023-05-20T02:48:02.990Z,83.79
2023-05-20T02:49:02.931Z,83.89
2023-05-20T02:50:02.894Z,83.79
2023-05-20T02:51:02.972Z,83.89
2023-05-20T02:52:02.872Z,83.79
2023-05-20T02:53:02.923Z,83.89
2023-05-20T02:54:02.854Z,83.89
2023-05-20T02:55:02.868Z,83.89
2023-05-20T02:56:02.868Z,83.65
2023-05-20T02:57:02.871Z,83.89
2023-05-20T02:58:02.818Z,84.20
2023-05-20T02:59:02.851Z,83.89
2023-05-20T03:00:02.810Z,84.61
2023-05-20T03:01:02.847Z,84.61
2023-05-20T03:02:02.768Z,84.30
2023-05-20T03:03:02.894Z,85.12
2023-05-20T03:04:02.778Z,84.91
2023-05-20T03:05:02.798Z,84.71
2023-05-20T03:06:02.736Z,84.91
2023-05-20T03:07:02.744Z,84.71
2023-05-20T03:08:02.704Z,84.91
2023-05-20T03:09:02.704Z,84.71
2023-05-20T03:10:02.699Z,84.81
2023-05-20T03:11:03.766Z,84.61
2023-05-20T03:12:02.661Z,84.61
2023-05-20T03:13:02.655Z,84.91
2023-05-20T03:14:02.642Z,84.61
2023-05-20T03:15:02.679Z,85.02
2023-05-20T03:16:02.669Z,84.50
2023-05-20T03:17:02.651Z,84.95
2023-05-20T03:18:02.667Z,84.81
2023-05-20T03:19:02.696Z,84.41
2023-05-20T03:20:02.574Z,84.95
2023-05-20T03:21:02.578Z,84.61
2023-05-20T03:22:02.578Z,84.95
2023-05-20T03:23:02.601Z,84.81
2023-05-20T03:24:02.535Z,84.71
2023-05-20T03:25:02.527Z,84.85
2023-05-20T03:26:02.523Z,84.71
2023-05-20T03:27:02.500Z,84.65
2023-05-20T03:28:02.509Z,84.75
2023-05-20T03:29:02.505Z,84.95
2023-05-20T03:30:02.468Z,84.65
2023-05-20T03:31:02.531Z,84.85
2023-05-20T03:32:02.433Z,84.95
2023-05-20T03:33:02.690Z,85.16
2023-05-20T03:34:02.453Z,84.95
2023-05-20T03:35:02.444Z,85.47
2023-05-20T03:36:02.406Z,85.26
2023-05-20T03:37:02.386Z,85.77
2023-05-20T03:38:02.377Z,85.40
2023-05-20T03:39:02.365Z,85.57
2023-05-20T03:40:02.367Z,85.57
2023-05-20T03:41:02.428Z,85.30
2023-05-20T03:42:02.333Z,85.10
2023-05-20T03:43:02.323Z,85.16
2023-05-20T03:44:02.351Z,85.61
2023-05-20T03:45:02.316Z,85.50
2023-05-20T03:46:02.280Z,85.67
2023-05-20T03:47:02.388Z,85.50
2023-05-20T03:48:02.336Z,85.71
2023-05-20T03:49:02.296Z,85.20
2023-05-20T03:50:02.256Z,85.81
2023-05-20T03:51:02.227Z,85.81
2023-05-20T03:52:02.222Z,85.57
2023-05-20T03:53:02.255Z,85.40
2023-05-20T03:54:02.198Z,85.36
2023-05-20T03:55:02.207Z,85.77
2023-05-20T03:56:02.189Z,85.77
2023-05-20T03:57:02.174Z,85.81
2023-05-20T03:58:02.200Z,86.08
2023-05-20T03:59:02.143Z,85.77
2023-05-20T04:00:02.153Z,86.02
2023-05-20T04:01:02.149Z,85.81
2023-05-20T04:02:02.130Z,86.02
2023-05-20T04:03:02.225Z,86.32
2023-05-20T04:04:02.211Z,85.77
2023-05-20T04:05:02.102Z,85.36
2023-05-20T04:06:02.071Z,85.97
2023-05-20T04:07:02.057Z,85.77
2023-05-20T04:08:02.059Z,85.88
2023-05-20T04:09:02.032Z,85.67
2023-05-20T04:10:02.096Z,85.97
2023-05-20T04:11:02.051Z,85.47
2023-05-20T04:12:01.999Z,85.97
2023-05-20T04:13:01.992Z,85.88
2023-05-20T04:14:02.026Z,85.77
2023-05-20T04:15:02.013Z,85.73
2023-05-20T04:16:02.067Z,85.73
2023-05-20T04:17:02.004Z,86.08
2023-05-20T04:18:01.989Z,86.59
2023-05-20T04:19:01.986Z,86.18
2023-05-20T04:20:01.932Z,86.18
2023-05-20T04:21:01.952Z,85.57
2023-05-20T04:22:01.968Z,85.67
2023-05-20T04:23:01.881Z,85.63
2023-05-20T04:24:01.880Z,85.83
2023-05-20T04:25:01.883Z,85.57
2023-05-20T04:26:01.857Z,85.63
2023-05-20T04:27:01.841Z,85.57
2023-05-20T04:28:01.883Z,85.73
2023-05-20T04:29:01.819Z,86.14
2023-05-20T04:30:01.829Z,86.08
2023-05-20T04:31:01.800Z,85.77
2023-05-20T04:32:01.832Z,85.83
2023-05-20T04:33:01.796Z,85.63
2023-05-20T04:34:01.798Z,86.04
2023-05-20T04:35:01.768Z,85.73
2023-05-20T04:36:01.747Z,85.83
2023-05-20T04:37:01.738Z,85.22
2023-05-20T04:38:01.739Z,85.63
2023-05-20T04:39:01.712Z,85.42
2023-05-20T04:40:01.730Z,85.77
2023-05-20T04:41:01.705Z,85.94
2023-05-20T04:42:01.687Z,85.83
2023-05-20T04:43:01.670Z,85.94
2023-05-20T04:44:01.681Z,85.53
2023-05-20T04:45:01.668Z,85.73
2023-05-20T04:46:01.695Z,85.94
2023-05-20T04:47:01.623Z,85.83
2023-05-20T04:48:01.664Z,85.83
2023-05-20T04:49:01.643Z,85.59
2023-05-20T04:50:01.597Z,85.38
2023-05-20T04:51:01.602Z,85.73
2023-05-20T04:52:01.642Z,85.53
2023-05-20T04:53:01.576Z,85.79
2023-05-20T04:54:01.553Z,85.69
2023-05-20T04:55:01.545Z,85.69
2023-05-20T04:56:01.520Z,86.10
2023-05-20T04:57:01.531Z,85.38
2023-05-20T04:58:01.580Z,85.24
2023-05-20T04:59:01.492Z,85.69
2023-05-20T05:00:01.499Z,85.45
2023-05-20T05:01:01.637Z,85.28
2023-05-20T05:02:01.490Z,85.24
2023-05-20T05:03:01.544Z,85.55
2023-05-20T05:04:01.520Z,84.63
2023-05-20T05:05:01.542Z,84.83
2023-05-20T05:06:01.423Z,84.59
2023-05-20T05:07:01.488Z,84.28
2023-05-20T05:08:01.422Z,83.78
2023-05-20T05:09:01.388Z,84.08
2023-05-20T05:10:01.628Z,84.59
2023-05-20T05:11:01.399Z,84.59
2023-05-20T05:12:01.428Z,83.87
2023-05-20T05:13:01.346Z,84.25
2023-05-20T05:14:01.354Z,83.47
2023-05-20T05:15:01.330Z,83.43
2023-05-20T05:16:01.442Z,83.33
2023-05-20T05:17:01.314Z,84.08
2023-05-20T05:18:01.346Z,81.94
2023-05-20T05:19:01.315Z,82.21
2023-05-20T05:20:01.270Z,82.82
2023-05-20T05:21:01.276Z,82.51
2023-05-20T05:22:01.260Z,82.21
2023-05-20T05:23:01.255Z,82.71
2023-05-20T05:24:01.259Z,82.82
2023-05-20T05:25:01.243Z,82.10
2023-05-20T05:26:01.226Z,81.86
2023-05-20T05:27:01.204Z,82.31
2023-05-20T05:28:01.186Z,82.47
2023-05-20T05:29:01.212Z,82.51
2023-05-20T05:30:01.261Z,82.37
2023-05-20T05:31:01.173Z,80.88
2023-05-20T05:32:01.171Z,81.45
2023-05-20T05:33:01.332Z,82.37
2023-05-20T05:34:01.121Z,81.66
2023-05-20T05:35:01.116Z,81.15
2023-05-20T05:36:01.164Z,81.45
2023-05-20T05:37:01.087Z,81.86
2023-05-20T05:38:01.079Z,80.70
2023-05-20T05:39:01.084Z,81.11
2023-05-20T05:40:01.078Z,81.01
2023-05-20T05:41:01.051Z,81.66
2023-05-20T05:42:01.103Z,80.70
2023-05-20T05:43:01.035Z,80.40
2023-05-20T05:44:01.024Z,80.80
2023-05-20T05:45:01.024Z,81.01
2023-05-20T05:46:01.010Z,80.09
2023-05-20T05:47:01.016Z,80.19
2023-05-20T05:48:01.110Z,80.46
2023-05-20T05:49:00.967Z,79.68
2023-05-20T05:50:00.950Z,79.64
2023-05-20T05:51:00.941Z,80.46
2023-05-20T05:52:00.954Z,80.87
2023-05-20T05:53:00.913Z,80.05
2023-05-20T05:54:00.937Z,80.22
2023-05-20T05:55:00.942Z,80.16
2023-05-20T05:56:00.887Z,80.26
2023-05-20T05:57:00.941Z,80.05
2023-05-20T05:58:00.870Z,80.16
2023-05-20T05:59:00.851Z,79.64
2023-05-20T06:00:00.920Z,79.71
2023-05-20T06:01:00.880Z,80.02
2023-05-20T06:02:00.909Z,80.02
2023-05-20T06:03:00.959Z,79.81
2023-05-20T06:04:00.969Z,79.81
2023-05-20T06:05:00.802Z,79.50
2023-05-20T06:06:00.871Z,80.32
2023-05-20T06:07:00.761Z,80.18
2023-05-20T06:08:00.755Z,79.68
2023-05-20T06:09:00.741Z,79.88
2023-05-20T06:10:00.756Z,80.29
2023-05-20T06:11:00.733Z,79.53
2023-05-20T06:12:00.799Z,80.08
2023-05-20T06:13:00.704Z,79.68
2023-05-20T06:14:00.675Z,79.16
2023-05-20T06:15:00.699Z,79.27
2023-05-20T06:16:00.721Z,79.37
2023-05-20T06:17:00.698Z,80.08
2023-05-20T06:18:00.715Z,79.98
2023-05-20T06:19:03.445Z,79.37
2023-05-20T06:20:00.632Z,79.16
2023-05-20T06:21:00.619Z,79.16
2023-05-20T06:22:00.647Z,79.47
2023-05-20T06:23:00.738Z,79.68
2023-05-20T06:24:00.601Z,79.23
2023-05-20T06:25:00.626Z,79.33
2023-05-20T06:26:00.575Z,79.23
2023-05-20T06:27:00.566Z,78.41
2023-05-20T06:28:00.568Z,78.68
2023-05-20T06:29:00.548Z,77.70
2023-05-20T06:30:00.574Z,77.26
2023-05-20T06:31:00.506Z,77.12
2023-05-20T06:32:00.497Z,77.94
2023-05-20T06:33:00.554Z,76.92
2023-05-20T06:34:00.496Z,77.02
2023-05-20T06:35:00.469Z,77.22
2023-05-20T06:36:00.503Z,77.09
2023-05-20T06:37:00.436Z,77.39
2023-05-20T06:38:00.459Z,77.12
2023-05-20T06:39:00.452Z,77.39
2023-05-20T06:40:00.478Z,77.66
2023-05-20T06:41:00.428Z,76.95
2023-05-20T06:42:00.627Z,76.10
2023-05-20T06:43:00.394Z,77.53
2023-05-20T06:44:00.445Z,78.04
2023-05-20T06:45:00.419Z,77.53
2023-05-20T06:46:00.409Z,76.31
2023-05-20T06:47:00.392Z,77.22
2023-05-20T06:48:00.497Z,77.29
2023-05-20T06:49:00.313Z,78.00
2023-05-20T06:50:00.320Z,77.59
2023-05-20T06:51:00.280Z,77.39
2023-05-20T06:52:00.372Z,77.05
2023-05-20T06:53:00.318Z,77.05
2023-05-20T06:54:00.252Z,77.05
2023-05-20T06:55:00.276Z,75.63
2023-05-20T06:56:00.317Z,75.02
2023-05-20T06:57:00.229Z,75.09
2023-05-20T06:58:00.262Z,75.29
2023-05-20T06:59:00.211Z,75.19
2023-05-20T07:00:00.222Z,75.59
2023-05-20T07:01:00.240Z,75.70
2023-05-20T07:02:00.220Z,75.35
2023-05-20T07:03:00.390Z,77.18
2023-05-20T07:04:00.213Z,77.08
2023-05-20T07:05:00.162Z,76.00
2023-05-20T07:06:00.155Z,76.51
2023-05-20T07:07:00.104Z,76.17
2023-05-20T07:08:00.382Z,75.56
2023-05-20T07:09:00.118Z,75.15
2023-05-20T07:10:00.177Z,75.12
2023-05-20T07:11:00.081Z,75.52
2023-05-20T07:12:00.228Z,75.73
2023-05-20T07:13:00.052Z,75.15
2023-05-20T07:14:00.108Z,74.44
2023-05-20T07:15:00.047Z,74.54
2023-05-20T07:16:00.062Z,75.15
2023-05-20T07:16:59.994Z,74.85
2023-05-20T07:18:00.032Z,74.65
2023-05-20T07:19:00.035Z,75.05
2023-05-20T07:19:59.975Z,75.82
2023-05-20T07:20:59.961Z,75.12
2023-05-20T07:21:59.983Z,75.52
2023-05-20T07:22:59.934Z,75.73
2023-05-20T07:23:59.954Z,75.38
2023-05-20T07:24:59.910Z,75.08
2023-05-20T07:25:59.919Z,73.63
2023-05-20T07:26:59.915Z,72.61
2023-05-20T07:27:59.923Z,73.69
2023-05-20T07:28:59.862Z,73.59
2023-05-20T07:29:59.893Z,73.90
2023-05-20T07:30:59.869Z,74.16
2023-05-20T07:31:59.872Z,73.46
2023-05-20T07:32:59.848Z,73.56
2023-05-20T07:33:59.809Z,73.25
2023-05-20T07:34:59.811Z,72.14
2023-05-20T07:35:59.793Z,71.64
2023-05-20T07:36:59.774Z,72.14
2023-05-20T07:37:59.932Z,72.24
2023-05-20T07:39:03.650Z,73.05
2023-05-20T07:40:00.795Z,73.66
2023-05-20T07:40:59.792Z,72.55
2023-05-20T07:41:59.733Z,72.95
2023-05-20T07:42:59.749Z,73.15
2023-05-20T07:43:59.724Z,73.76
2023-05-20T07:44:59.696Z,73.25
2023-05-20T07:45:59.752Z,72.81
2023-05-20T07:46:59.778Z,73.83
2023-05-20T07:47:59.785Z,73.49
2023-05-20T07:48:59.736Z,72.17
2023-05-20T07:49:59.675Z,72.08
2023-05-20T07:50:59.624Z,72.58
2023-05-20T07:52:02.078Z,72.68
2023-05-20T07:52:59.625Z,73.08
2023-05-20T07:53:59.595Z,71.97
2023-05-20T07:54:59.632Z,70.96
2023-05-20T07:55:59.605Z,71.37
2023-05-20T07:56:59.590Z,73.69
2023-05-20T07:57:59.589Z,73.49
2023-05-20T07:58:59.693Z,72.14
2023-05-20T07:59:59.569Z,72.44
2023-05-20T08:00:59.527Z,72.34
2023-05-20T08:01:59.514Z,71.23
2023-05-20T08:02:59.702Z,71.64
2023-05-20T08:03:59.679Z,72.61
2023-05-20T08:04:59.485Z,72.31
2023-05-20T08:05:59.474Z,71.50
2023-05-20T08:06:59.523Z,71.70
2023-05-20T08:07:59.722Z,72.07
2023-05-20T08:08:59.527Z,71.94
2023-05-20T08:09:59.419Z,71.84
2023-05-20T08:10:59.453Z,71.40
2023-05-20T08:11:59.399Z,70.49
2023-05-20T08:12:59.386Z,70.69
2023-05-20T08:13:59.404Z,70.69
2023-05-20T08:14:59.369Z,70.26
2023-05-20T08:15:59.398Z,69.92
2023-05-20T08:16:59.392Z,69.99
2023-05-20T08:17:59.487Z,71.06
2023-05-20T08:18:59.432Z,69.75
2023-05-20T08:19:59.320Z,70.46
2023-05-20T08:20:59.316Z,70.15
2023-05-20T08:21:59.313Z,69.65
2023-05-20T08:22:59.288Z,69.85
2023-05-20T08:23:59.321Z,70.02
2023-05-20T08:24:59.271Z,70.09
2023-05-20T08:25:59.242Z,69.09
2023-05-20T08:26:59.257Z,68.18
2023-05-20T08:27:59.232Z,68.04
2023-05-20T08:28:59.227Z,70.06
2023-05-20T08:30:00.660Z,69.12
2023-05-20T08:30:59.246Z,68.01
2023-05-20T08:31:59.180Z,68.78
2023-05-20T08:32:59.250Z,68.35
2023-05-20T08:33:59.193Z,67.11
2023-05-20T08:34:59.177Z,66.28
2023-05-20T08:35:59.156Z,66.47
2023-05-20T08:36:59.121Z,65.44
2023-05-20T08:37:59.115Z,64.34
2023-05-20T08:38:59.181Z,65.64
2023-05-20T08:39:59.111Z,65.21
2023-05-20T08:40:59.080Z,64.68
2023-05-20T08:41:59.072Z,64.98
2023-05-20T08:42:59.188Z,65.18
2023-05-20T08:43:59.076Z,64.28
2023-05-20T08:44:59.039Z,63.87
2023-05-20T08:45:59.097Z,63.57
2023-05-20T08:46:59.245Z,63.67
2023-05-20T08:47:59.080Z,62.67
2023-05-20T08:48:59.019Z,63.14
2023-05-20T08:49:59.051Z,63.98
2023-05-20T08:50:59.002Z,63.07
2023-05-20T08:51:58.981Z,62.97
2023-05-20T08:52:58.991Z,63.78
2023-05-20T08:53:58.947Z,63.28
2023-05-20T08:54:58.950Z,64.04
2023-05-20T08:56:01.493Z,63.45
2023-05-20T08:56:58.917Z,62.34
2023-05-20T08:57:58.917Z,62.54
2023-05-20T08:58:58.923Z,62.64
2023-05-20T08:59:58.881Z,63.64
2023-05-20T09:00:59.016Z,63.98
2023-05-20T09:01:58.908Z,62.87
2023-05-20T09:03:00.895Z,63.57
2023-05-20T09:03:59.030Z,63.90
2023-05-20T09:04:58.888Z,64.61
2023-05-20T09:05:58.835Z,65.71
2023-05-20T09:06:58.821Z,64.11
2023-05-20T09:07:58.793Z,65.18
2023-05-20T09:08:58.786Z,64.58
2023-05-20T09:09:58.784Z,63.87
2023-05-20T09:10:58.800Z,64.07
2023-05-20T09:11:58.753Z,64.21
2023-05-20T09:12:58.742Z,65.21
2023-05-20T09:13:58.735Z,65.71
2023-05-20T09:14:58.723Z,65.21
2023-05-20T09:15:58.741Z,64.40
2023-05-20T09:16:58.751Z,64.48
2023-05-20T09:17:58.743Z,64.37
2023-05-20T09:18:58.726Z,64.28
2023-05-20T09:19:58.688Z,64.48
2023-05-20T09:20:58.675Z,64.37
2023-05-20T09:21:58.660Z,64.68
2023-05-20T09:22:58.674Z,65.08
2023-05-20T09:23:58.629Z,65.11
2023-05-20T09:24:58.621Z,64.71
2023-05-20T09:25:58.628Z,65.04
2023-05-20T09:26:58.601Z,64.74
2023-05-20T09:27:58.581Z,64.74
2023-05-20T09:28:58.630Z,64.24
2023-05-20T09:29:58.580Z,65.24
2023-05-20T09:30:58.556Z,65.84
2023-05-20T09:31:58.563Z,63.84
2023-05-20T09:32:58.569Z,64.54
2023-05-20T09:33:58.512Z,64.01
2023-05-20T09:34:58.553Z,64.51
2023-05-20T09:35:58.502Z,64.61
2023-05-20T09:36:58.490Z,64.14
2023-05-20T09:37:58.480Z,63.70
2023-05-20T09:38:58.513Z,63.81
2023-05-20T09:39:58.470Z,63.60
2023-05-20T09:40:58.465Z,63.93
2023-05-20T09:41:58.439Z,63.93
2023-05-20T09:42:58.422Z,64.84
2023-05-20T09:43:58.424Z,64.43
2023-05-20T09:44:58.401Z,63.84
2023-05-20T09:45:58.438Z,65.37
2023-05-20T09:46:58.420Z,65.37
2023-05-20T09:47:58.487Z,64.77
2023-05-20T09:48:58.390Z,64.67
2023-05-20T09:49:58.350Z,64.67
2023-05-20T09:50:58.359Z,64.87
2023-05-20T09:51:58.335Z,65.17
2023-05-20T09:52:58.324Z,65.74
2023-05-20T09:53:58.324Z,64.34
2023-05-20T09:54:58.313Z,64.43
2023-05-20T09:55:58.297Z,64.37
2023-05-20T09:56:58.296Z,65.17
2023-05-20T09:57:58.274Z,64.97
2023-05-20T09:58:58.262Z,65.41
2023-05-20T09:59:58.266Z,65.47
2023-05-20T10:00:58.267Z,65.37
2023-05-20T10:01:58.245Z,64.97
2023-05-20T10:02:58.281Z,65.17
2023-05-20T10:03:58.248Z,65.27
2023-05-20T10:04:58.193Z,65.27
2023-05-20T10:05:58.235Z,65.17
2023-05-20T10:06:58.170Z,64.67
2023-05-20T10:07:58.177Z,64.97
2023-05-20T10:08:58.213Z,65.74
2023-05-20T10:09:58.136Z,65.24
2023-05-20T10:10:58.150Z,65.31
2023-05-20T10:11:58.135Z,64.34
2023-05-20T10:12:58.152Z,63.90
2023-05-20T10:13:58.107Z,63.90
2023-05-20T10:14:58.094Z,64.21
2023-05-20T10:15:58.188Z,65.01
2023-05-20T10:16:58.073Z,64.81
2023-05-20T10:17:58.094Z,65.18
2023-05-20T10:18:58.081Z,64.07
2023-05-20T10:19:58.051Z,63.47
2023-05-20T10:20:58.037Z,63.64
2023-05-20T10:21:58.030Z,63.21
2023-05-20T10:22:58.075Z,62.21
2023-05-20T10:23:57.992Z,63.71
2023-05-20T10:24:57.977Z,62.18
2023-05-20T10:25:57.991Z,62.28
2023-05-20T10:26:57.981Z,62.55
2023-05-20T10:27:57.962Z,62.15
2023-05-20T10:28:57.939Z,61.65
2023-05-20T10:29:58.196Z,61.85
2023-05-20T10:30:57.921Z,61.58
2023-05-20T10:31:57.966Z,61.78
2023-05-20T10:32:58.110Z,63.61
2023-05-20T10:33:57.888Z,62.21
2023-05-20T10:34:57.873Z,62.41
2023-05-20T10:35:57.857Z,63.51
2023-05-20T10:36:57.869Z,63.51
2023-05-20T10:37:57.860Z,63.58
2023-05-20T10:38:57.847Z,62.51
2023-05-20T10:39:57.809Z,62.58
2023-05-20T10:40:57.804Z,64.22
2023-05-20T10:41:57.794Z,63.11
2023-05-20T10:42:57.931Z,63.61
2023-05-20T10:43:57.814Z,62.38
2023-05-20T10:44:57.763Z,62.78
2023-05-20T10:45:57.790Z,63.28
2023-05-20T10:47:20.445Z,62.68
2023-05-20T10:47:59.020Z,62.88
2023-05-20T10:48:57.909Z,62.05
2023-05-20T10:49:57.728Z,62.05
2023-05-20T10:50:57.765Z,62.42
2023-05-20T10:51:57.681Z,61.59
2023-05-20T10:52:57.687Z,61.96
2023-05-20T10:53:57.667Z,61.63
2023-05-20T10:54:57.672Z,62.01
2023-05-20T10:55:57.697Z,60.21
2023-05-20T10:56:57.648Z,60.63
2023-05-20T10:57:57.650Z,60.21
2023-05-20T10:58:57.638Z,59.81
2023-05-20T10:59:57.602Z,60.17
2023-05-20T11:00:57.647Z,59.44
2023-05-20T11:01:57.581Z,60.99
2023-05-20T11:02:57.756Z,61.59
2023-05-20T11:03:57.743Z,61.59
2023-05-20T11:04:57.552Z,61.66
2023-05-20T11:05:57.541Z,61.33
2023-05-20T11:06:57.567Z,61.10
2023-05-20T11:07:57.540Z,58.61
2023-05-20T11:08:57.530Z,59.94
2023-05-20T11:09:57.598Z,60.27
2023-05-20T11:10:57.496Z,60.27
2023-05-20T11:11:57.476Z,60.86
2023-05-20T11:12:57.504Z,61.59
2023-05-20T11:13:57.455Z,61.22
2023-05-20T11:14:57.483Z,61.22
2023-05-20T11:15:57.419Z,61.45
2023-05-20T11:16:57.463Z,61.75
2023-05-20T11:17:57.452Z,62.28
2023-05-20T11:18:57.423Z,62.71
2023-05-20T11:19:57.378Z,63.11
2023-05-20T11:20:57.389Z,63.39
2023-05-20T11:21:57.362Z,63.28
2023-05-20T11:22:57.376Z,62.65
2023-05-20T11:23:57.374Z,61.95
2023-05-20T11:24:57.329Z,62.75
2023-05-20T11:25:57.320Z,61.72
2023-05-20T11:26:57.320Z,62.32
2023-05-20T11:27:57.292Z,62.59
2023-05-20T11:28:58.729Z,61.79
2023-05-20T11:29:57.293Z,61.49
2023-05-20T11:30:57.293Z,61.19
2023-05-20T11:31:57.299Z,62.19
2023-05-20T11:32:57.290Z,60.92
2023-05-20T11:33:57.251Z,61.02
2023-05-20T11:34:57.301Z,61.75
2023-05-20T11:35:57.227Z,62.58
2023-05-20T11:36:57.227Z,61.75
2023-05-20T11:37:57.189Z,61.85
2023-05-20T11:38:57.181Z,62.42
2023-05-20T11:39:57.169Z,62.59
2023-05-20T11:40:57.553Z,61.29
2023-05-20T11:41:57.166Z,60.62
2023-05-20T11:42:57.154Z,61.40
2023-05-20T11:43:57.156Z,61.22
2023-05-20T11:44:57.815Z,61.92
2023-05-20T11:45:57.235Z,62.52
2023-05-20T11:46:57.108Z,61.35
2023-05-20T11:47:57.178Z,62.28
2023-05-20T11:48:57.158Z,63.28
2023-05-20T11:49:57.059Z,62.28
2023-05-20T11:50:57.069Z,62.98
2023-05-20T11:51:57.393Z,62.98
2023-05-20T11:52:57.031Z,62.68
2023-05-20T11:53:57.040Z,62.58
2023-05-20T11:54:57.006Z,62.65
2023-05-20T11:55:57.022Z,63.45
2023-05-20T11:56:57.028Z,62.62
2023-05-20T11:57:56.989Z,62.42
2023-05-20T11:58:56.984Z,61.49
2023-05-20T11:59:56.955Z,61.69
2023-05-20T12:01:02.376Z,62.59
2023-05-20T12:01:57.928Z,62.52
2023-05-20T12:02:57.046Z,62.59
2023-05-20T12:03:57.106Z,61.22
2023-05-20T12:05:56.892Z,62.25
2023-05-20T12:06:56.886Z,62.35
2023-05-20T12:07:56.869Z,62.85
2023-05-20T12:08:56.911Z,63.25
2023-05-20T12:09:56.854Z,63.06
2023-05-20T12:10:56.841Z,62.75
2023-05-20T12:11:56.841Z,62.85
2023-05-20T12:12:56.822Z,62.95
2023-05-20T12:13:56.804Z,62.18
2023-05-20T12:14:56.836Z,62.68
2023-05-20T12:15:56.855Z,63.31
2023-05-20T12:16:56.791Z,63.81
2023-05-20T12:17:56.791Z,64.62
2023-05-20T12:18:56.837Z,64.62
2023-05-20T12:19:56.741Z,63.42
2023-05-20T12:20:56.778Z,63.61
2023-05-20T12:21:56.720Z,63.81
2023-05-20T12:22:56.764Z,64.04
2023-05-20T12:23:56.695Z,63.95
2023-05-20T12:24:56.687Z,63.98
2023-05-20T12:25:56.673Z,63.98
2023-05-20T12:26:56.691Z,64.68
2023-05-20T12:27:56.671Z,64.58
2023-05-20T12:28:56.713Z,65.18
2023-05-20T12:29:56.636Z,65.58
2023-05-20T12:30:56.617Z,65.38
2023-05-20T12:31:56.668Z,64.78
2023-05-20T12:32:56.672Z,65.65
2023-05-20T12:33:56.586Z,65.88
2023-05-20T12:34:56.640Z,66.08
2023-05-20T12:35:56.562Z,65.28
2023-05-20T12:36:56.561Z,64.88
2023-05-20T12:37:56.550Z,64.98
2023-05-20T12:38:56.662Z,64.18
2023-05-20T12:39:56.523Z,65.58
2023-05-20T12:40:56.520Z,64.98
2023-05-20T12:41:56.499Z,65.28
2023-05-20T12:42:56.489Z,64.28
2023-05-20T12:43:56.475Z,64.48
2023-05-20T12:44:56.513Z,65.28
2023-05-20T12:45:56.449Z,65.08
2023-05-20T12:46:56.485Z,65.28
2023-05-20T12:47:56.541Z,64.88
2023-05-20T12:48:56.423Z,64.98
2023-05-20T12:49:56.411Z,63.84
2023-05-20T12:50:56.440Z,64.95
2023-05-20T12:51:56.388Z,64.34
2023-05-20T12:52:56.389Z,64.45